Time;durP1;ratioP1;P1;durP2;ratioP2;P2;SDS_P1;SDS_P2;PMS_P1;PMS_P2;Temp;Humidity;BMP_temperature;BMP_pressure;BME280_temperature;BME280_humidity;BME280_pressure;Samples;Min_cycle;Max_cycle;Signal;HPM_P1;HPM_P2
2022/10/31 00:03:15;;;;;;;0.00;0.00;;;15.90;85.20;;;;;;5055837;28;19915;-70
2022/10/31 00:06:27;;;;;;;0.15;0.15;;;15.80;84.60;;;;;;5055704;28;20025;-71
2022/10/31 00:09:04;;;;;;;0.10;0.10;;;15.80;83.90;;;;;;5055923;28;20021;-71
2022/10/31 00:11:38;;;;;;;0.03;0.03;;;15.70;84.10;;;;;;5056188;28;20017;-70
2022/10/31 00:17:38;;;;;;;0.50;0.30;;;15.70;83.80;;;;;;5059495;28;20089;-70
2022/10/31 00:20:13;;;;;;;0.93;0.75;;;15.70;83.90;;;;;;5059326;28;20029;-70
2022/10/31 00:22:47;;;;;;;1.63;1.02;;;15.60;83.80;;;;;;5059228;28;20021;-70
2022/10/31 00:25:13;;;;;;;0.08;0.08;;;15.70;84.20;;;;;;5059146;28;20108;-70
2022/10/31 00:27:57;;;;;;;0.88;0.82;;;15.70;85.20;;;;;;5059062;28;20158;-70
2022/10/31 00:30:32;;;;;;;0.55;0.05;;;15.60;85.30;;;;;;5059079;28;20029;-70
2022/10/31 00:33:07;;;;;;;0.40;0.30;;;15.60;86.80;;;;;;5059011;28;20151;-70
2022/10/31 00:35:33;;;;;;;0.13;0.10;;;15.60;88.20;;;;;;5058897;28;20028;-70
2022/10/31 00:38:17;;;;;;;0.20;0.10;;;15.60;88.20;;;;;;5041282;28;20405;-71
2022/10/31 00:40:52;;;;;;;0.88;0.60;;;15.60;88.10;;;;;;5040997;28;20405;-70
2022/10/31 00:43:26;;;;;;;0.00;0.00;;;15.60;88.40;;;;;;5041155;28;20029;-70
2022/10/31 00:46:01;;;;;;;0.25;0.20;;;15.60;87.80;;;;;;5058831;28;20340;-70
2022/10/31 00:48:36;;;;;;;0.93;0.60;;;15.60;86.50;;;;;;5058735;28;20013;-70
2022/10/31 00:51:14;;;;;;;0.17;0.17;;;15.60;86.20;;;;;;5058679;28;20067;-70
2022/10/31 00:57:27;;;;;;;0.98;0.52;;;15.60;84.30;;;;;;5058189;28;20325;-70
2022/10/31 01:00:02;;;;;;;0.55;0.40;;;15.60;85.30;;;;;;5058491;28;20021;-70
2022/10/31 01:06:16;;;;;;;0.10;0.10;;;15.60;85.30;;;;;;5058458;28;20032;-70
2022/10/31 01:08:50;;;;;;;1.38;0.63;;;15.60;84.20;;;;;;5058446;28;20009;-70
2022/10/31 01:11:25;;;;;;;1.42;0.77;;;15.60;84.80;;;;;;5058144;28;20025;-70
2022/10/31 01:13:52;;;;;;;0.22;0.10;;;15.60;84.90;;;;;;5040636;28;20371;-70
2022/10/31 01:16:37;;;;;;;0.32;0.20;;;15.60;84.60;;;;;;5040509;28;20075;-70
2022/10/31 01:19:12;;;;;;;0.88;0.43;;;15.60;84.10;;;;;;5058204;28;20033;-70
2022/10/31 01:21:47;;;;;;;0.20;0.10;;;15.60;84.50;;;;;;5032094;28;20052;-71
2022/10/31 01:24:13;;;;;;;;;;;15.60;85.30;;;;;;5058293;28;20271;-71
2022/10/31 01:26:57;;;;;;;0.47;0.47;;;15.60;85.90;;;;;;5058063;28;20204;-71
2022/10/31 01:29:32;;;;;;;0.00;0.00;;;15.50;84.70;;;;;;5040353;28;20287;-71
2022/10/31 01:32:06;;;;;;;0.35;0.20;;;15.50;84.40;;;;;;5057878;28;20124;-71
2022/10/31 01:34:32;;;;;;;0.75;0.32;;;15.50;84.30;;;;;;5057919;28;20024;-71
2022/10/31 01:37:16;;;;;;;0.40;0.40;;;15.50;84.20;;;;;;5057851;28;20025;-71
2022/10/31 01:39:51;;;;;;;0.20;0.10;;;15.40;84.60;;;;;;5057769;28;20086;-71
2022/10/31 01:45:54;;;;;;;0.43;0.35;;;15.40;85.80;;;;;;5057956;28;20023;-71
2022/10/31 01:48:31;;;;;;;1.10;1.05;;;15.40;85.60;;;;;;5057583;28;20021;-71
2022/10/31 01:51:06;;;;;;;0.13;0.13;;;15.40;86.20;;;;;;5057435;28;20013;-71
2022/10/31 01:53:33;;;;;;;0.70;0.43;;;15.40;86.20;;;;;;5039698;28;20032;-71
2022/10/31 01:56:00;;;;;;;2.38;0.88;;;15.40;85.30;;;;;;5056991;28;20052;-72
2022/10/31 01:58:35;;;;;;;0.20;0.20;;;15.40;85.30;;;;;;5057443;28;20075;-71
2022/10/31 02:01:21;;;;;;;1.85;0.45;;;15.50;84.20;;;;;;5057147;28;20032;-72
2022/10/31 02:04:33;;;;;;;0.45;0.45;;;15.60;84.10;;;;;;5057174;28;20021;-71
2022/10/31 02:07:22;;;;;;;0.15;0.15;;;15.50;83.90;;;;;;5057431;28;20274;-71
2022/10/31 02:10:02;;;;;;;0.03;0.03;;;15.40;84.00;;;;;;5057288;28;20009;-72
2022/10/31 02:12:38;;;;;;;1.38;0.90;;;15.40;84.30;;;;;;5056946;28;20036;-72
2022/10/31 02:15:05;;;;;;;1.15;1.08;;;15.40;84.70;;;;;;5057058;28;20309;-71
2022/10/31 02:17:43;;;;;;;0.00;0.00;;;15.30;85.20;;;;;;5056949;28;20025;-71
2022/10/31 02:20:32;;;;;;;1.60;0.25;;;15.30;85.60;;;;;;5039249;28;20017;-71
2022/10/31 02:26:45;;;;;;;2.47;0.73;;;15.30;85.20;;;;;;5056915;28;20031;-71
2022/10/31 02:29:28;;;;;;;1.05;0.90;;;15.30;85.70;;;;;;5056920;28;20309;-71
2022/10/31 02:32:21;;;;;;;0.50;0.50;;;15.30;85.40;;;;;;5038907;28;20313;-71
2022/10/31 02:34:57;;;;;;;0.50;0.30;;;15.30;85.40;;;;;;5056276;28;20021;-71
2022/10/31 02:37:43;;;;;;;0.20;0.20;;;15.30;85.10;;;;;;5056719;28;20104;-71
2022/10/31 02:40:38;;;;;;;0.22;0.20;;;15.30;84.90;;;;;;5056748;28;20025;-71
2022/10/31 02:43:35;;;;;;;0.63;0.35;;;15.30;84.90;;;;;;5056419;28;20021;-71
2022/10/31 02:46:22;;;;;;;0.20;0.10;;;15.30;83.60;;;;;;5056541;28;20074;-71
2022/10/31 02:49:16;;;;;;;1.30;1.20;;;15.40;83.70;;;;;;5056506;28;20024;-71
2022/10/31 02:51:52;;;;;;;0.00;0.00;;;15.50;83.10;;;;;;5056445;28;20020;-71
2022/10/31 02:54:26;;;;;;;2.60;1.02;;;15.50;82.80;;;;;;5056361;28;20162;-71
2022/10/31 02:57:51;;;;;;;3.30;0.45;;;15.40;83.20;;;;;;5056088;28;20048;-71
2022/10/31 03:01:17;;;;;;;0.30;0.30;;;15.30;84.60;;;;;;5056410;28;20025;-71
2022/10/31 03:08:13;;;;;;;0.10;0.10;;;15.40;85.60;;;;;;5056583;28;20028;-71
2022/10/31 03:11:38;;;;;;;0.30;0.22;;;15.40;85.90;;;;;;5056231;28;20025;-71
2022/10/31 03:18:38;;;;;;;1.27;1.00;;;15.50;84.70;;;;;;5056184;28;20418;-71
2022/10/31 03:22:03;;;;;;;0.35;0.35;;;15.50;84.00;;;;;;5056075;28;20397;-71
2022/10/31 03:24:35;;;;;;;0.00;0.00;;;15.60;83.20;;;;;;5056229;28;20033;-71
2022/10/31 03:27:14;;;;;;;0.40;0.40;;;15.60;82.60;;;;;;5056311;28;20318;-72
2022/10/31 03:30:01;;;;;;;0.57;0.15;;;15.60;82.80;;;;;;5056144;28;20459;-71
2022/10/31 03:32:43;;;;;;;2.13;0.35;;;15.60;82.90;;;;;;5056114;28;20055;-71
2022/10/31 03:35:12;;;;;;;0.20;0.20;;;15.60;82.80;;;;;;5056070;28;20040;-71
2022/10/31 03:37:49;;;;;;;0.45;0.40;;;15.60;83.30;;;;;;5056006;28;20451;-71
2022/10/31 03:40:27;;;;;;;1.02;0.47;;;15.60;82.10;;;;;;5056220;28;20309;-71
2022/10/31 03:46:14;;;;;;;1.20;0.20;;;15.50;82.10;;;;;;5056348;28;20032;-71
2022/10/31 03:48:59;;;;;;;0.22;0.20;;;15.60;82.90;;;;;;5059727;28;20394;-71
2022/10/31 03:55:03;;;;;;;0.68;0.57;;;15.50;83.30;;;;;;5060263;28;20103;-71
2022/10/31 03:58:08;;;;;;;0.43;0.30;;;15.40;85.00;;;;;;5059100;28;20175;-71
2022/10/31 04:00:45;;;;;;;0.00;0.00;;;15.40;85.60;;;;;;5059526;28;20021;-71
2022/10/31 04:03:27;;;;;;;0.00;0.00;;;15.40;86.40;;;;;;5059529;28;20120;-71
2022/10/31 04:06:14;;;;;;;0.43;0.38;;;15.40;86.70;;;;;;5059516;28;20100;-71
2022/10/31 04:08:53;;;;;;;0.30;0.17;;;15.40;86.00;;;;;;5059681;28;20017;-71
2022/10/31 04:11:46;;;;;;;0.60;0.10;;;15.40;85.10;;;;;;5059537;28;20296;-71
2022/10/31 04:14:12;;;;;;;0.43;0.43;;;15.40;84.30;;;;;;5059396;28;20035;-71
2022/10/31 04:16:56;;;;;;;2.63;1.45;;;15.40;84.60;;;;;;5059382;28;20124;-71
2022/10/31 04:19:32;;;;;;;0.00;0.00;;;15.40;83.80;;;;;;5059286;28;20033;-71
2022/10/31 04:25:20;;;;;;;0.05;0.03;;;15.50;82.90;;;;;;5059583;28;20040;-71
2022/10/31 04:27:55;;;;;;;0.32;0.32;;;15.60;82.60;;;;;;5059198;28;20060;-71
2022/10/31 04:30:29;;;;;;;0.30;0.10;;;15.60;83.30;;;;;;5058963;28;20009;-71
2022/10/31 04:36:16;;;;;;;1.00;0.50;;;15.60;82.80;;;;;;5059369;28;20040;-71
2022/10/31 04:38:51;;;;;;;2.08;0.88;;;15.60;83.80;;;;;;5058893;28;20021;-72
2022/10/31 04:41:26;;;;;;;0.30;0.23;;;15.50;83.90;;;;;;5058775;28;20035;-71
2022/10/31 04:43:52;;;;;;;0.10;0.03;;;15.50;83.80;;;;;;5041111;28;20029;-71
2022/10/31 04:46:36;;;;;;;0.08;0.08;;;15.50;83.20;;;;;;5058748;28;20067;-71
2022/10/31 04:49:14;;;;;;;0.80;0.25;;;15.50;82.40;;;;;;5058913;28;20066;-71
2022/10/31 04:51:49;;;;;;;2.75;0.73;;;15.60;81.00;;;;;;5040943;28;20023;-72
2022/10/31 04:54:15;;;;;;;1.33;0.63;;;15.60;81.10;;;;;;5040901;28;20401;-71
2022/10/31 04:56:41;;;;;;;0.25;0.25;;;15.60;81.20;;;;;;5057943;28;20098;-71
2022/10/31 04:59:16;;;;;;;0.60;0.45;;;15.70;80.00;;;;;;5040414;28;20128;-71
2022/10/31 05:01:52;;;;;;;0.15;0.10;;;15.70;80.70;;;;;;5058485;28;20112;-72
2022/10/31 05:04:17;;;;;;;1.75;0.32;;;15.70;80.30;;;;;;5040743;28;20035;-71
2022/10/31 05:06:52;;;;;;;0.20;0.20;;;15.70;80.30;;;;;;5040619;28;20305;-71
2022/10/31 05:09:27;;;;;;;0.38;0.38;;;15.80;79.90;;;;;;5058412;28;20020;-71
2022/10/31 05:15:16;;;;;;;0.88;0.63;;;15.60;81.20;;;;;;5058614;28;20084;-71
2022/10/31 05:17:51;;;;;;;0.43;0.43;;;15.60;80.90;;;;;;5058126;28;20032;-71
2022/10/31 05:20:29;;;;;;;1.13;1.02;;;15.60;80.20;;;;;;5058233;28;20084;-70
2022/10/31 05:23:13;;;;;;;0.25;0.20;;;15.70;80.40;;;;;;5040416;28;20313;-71
2022/10/31 05:25:48;;;;;;;1.27;1.17;;;15.70;80.40;;;;;;5040494;28;20086;-71
2022/10/31 05:28:23;;;;;;;0.50;0.50;;;15.70;81.30;;;;;;5057989;28;20029;-71
2022/10/31 05:30:58;;;;;;;0.40;0.35;;;15.60;81.00;;;;;;5058097;28;20259;-71
2022/10/31 05:33:23;;;;;;;0.00;0.00;;;15.60;81.20;;;;;;5057857;28;20394;-71
2022/10/31 05:36:08;;;;;;;0.77;0.77;;;15.60;81.20;;;;;;5057809;28;20078;-71
2022/10/31 05:38:42;;;;;;;0.10;0.00;;;15.60;81.50;;;;;;5057880;28;20348;-71
2022/10/31 05:41:17;;;;;;;0.73;0.43;;;15.50;81.10;;;;;;5057836;28;20032;-71
2022/10/31 05:47:20;;;;;;;1.40;0.25;;;15.50;81.40;;;;;;5057764;28;20024;-71
2022/10/31 05:49:54;;;;;;;3.30;2.05;;;15.50;81.70;;;;;;5057725;28;20017;-71
2022/10/31 05:55:43;;;;;;;1.95;1.40;;;15.50;81.10;;;;;;5057944;28;20063;-70
2022/10/31 05:58:17;;;;;;;0.40;0.40;;;15.50;81.60;;;;;;5056944;28;20053;-71
2022/10/31 06:00:53;;;;;;;1.00;0.70;;;15.50;81.60;;;;;;5057254;28;20325;-71
2022/10/31 06:03:27;;;;;;;0.30;0.30;;;15.50;82.40;;;;;;5039567;28;20021;-71
2022/10/31 06:06:04;;;;;;;0.28;0.17;;;15.50;82.20;;;;;;5039967;28;20037;-71
2022/10/31 06:08:40;;;;;;;4.40;0.73;;;15.50;82.40;;;;;;5023267;28;20413;-71
2022/10/31 06:14:08;;;;;;;0.00;0.00;;;15.40;83.60;;;;;;5057160;28;19911;-71
2022/10/31 06:16:43;;;;;;;0.00;0.00;;;15.40;83.90;;;;;;5039522;28;20025;-71
2022/10/31 06:19:18;;;;;;;0.15;0.15;;;15.50;83.80;;;;;;5057100;28;20314;-71
2022/10/31 06:25:05;;;;;;;0.88;0.50;;;15.70;84.30;;;;;;5057322;28;20055;-69
2022/10/31 06:27:46;;;;;;;0.77;0.50;;;15.80;84.20;;;;;;5057316;28;20017;-70
2022/10/31 06:30:21;;;;;;;1.27;0.43;;;16.00;82.70;;;;;;5039234;28;20028;-70
2022/10/31 06:36:10;;;;;;;0.38;0.10;;;16.40;83.10;;;;;;5057122;28;20163;-70
2022/10/31 06:38:45;;;;;;;0.40;0.40;;;16.50;84.10;;;;;;5056777;28;20028;-70
2022/10/31 06:41:20;;;;;;;1.08;0.30;;;16.60;85.20;;;;;;5056745;28;20033;-70
2022/10/31 06:47:16;;;;;;;1.63;0.20;;;16.70;86.30;;;;;;5056636;28;20062;-70
2022/10/31 06:49:51;;;;;;;1.20;1.10;;;16.80;86.80;;;;;;5056560;28;20364;-70
2022/10/31 06:52:25;;;;;;;0.22;0.20;;;16.80;86.30;;;;;;5056468;28;20024;-71
2022/10/31 06:54:51;;;;;;;2.80;0.80;;;16.90;87.50;;;;;;5038811;28;20060;-71
2022/10/31 06:57:17;;;;;;;0.00;0.00;;;17.00;88.30;;;;;;5056099;28;20080;-72
2022/10/31 06:59:51;;;;;;;0.57;0.40;;;17.00;88.60;;;;;;5056523;28;20025;-71
2022/10/31 07:05:40;;;;;;;0.20;0.13;;;17.20;86.40;;;;;;5056862;28;20024;-72
2022/10/31 07:08:14;;;;;;;0.15;0.15;;;17.30;85.80;;;;;;5056311;28;20031;-72
2022/10/31 07:10:55;;;;;;;0.70;0.40;;;17.40;83.90;;;;;;5056340;28;20017;-71
2022/10/31 07:16:52;;;;;;;1.50;0.40;;;17.60;86.20;;;;;;5056576;28;20028;-71
2022/10/31 07:19:26;;;;;;;0.30;0.17;;;17.70;84.20;;;;;;5056307;28;20139;-70
2022/10/31 07:25:14;;;;;;;0.38;0.38;;;17.90;82.00;;;;;;5060607;28;20035;-70
2022/10/31 07:27:49;;;;;;;0.93;0.52;;;17.90;81.80;;;;;;5060276;28;20021;-70
2022/10/31 07:30:23;;;;;;;0.28;0.28;;;18.00;79.40;;;;;;5060281;28;20044;-70
2022/10/31 07:33:48;;;;;;;0.45;0.45;;;18.10;77.30;;;;;;5060149;28;20356;-70
2022/10/31 07:37:13;;;;;;;1.02;0.82;;;18.20;78.50;;;;;;5060082;28;20029;-70
2022/10/31 07:40:38;;;;;;;0.00;0.00;;;18.30;82.00;;;;;;5060217;28;20104;-70
2022/10/31 07:43:29;;;;;;;0.10;0.10;;;18.50;79.30;;;;;;5059961;28;20100;-70
2022/10/31 07:46:07;;;;;;;0.20;0.10;;;18.70;75.90;;;;;;5060241;28;20401;-70
2022/10/31 07:48:42;;;;;;;0.20;0.20;;;18.90;76.30;;;;;;5060048;28;20024;-70
2022/10/31 07:51:16;;;;;;;0.15;0.15;;;19.00;77.30;;;;;;5059904;28;20447;-70
2022/10/31 07:57:19;;;;;;;0.73;0.43;;;19.10;76.80;;;;;;5059732;28;20071;-70
2022/10/31 07:59:54;;;;;;;0.47;0.30;;;19.20;75.60;;;;;;5022241;28;20049;-70
2022/10/31 08:05:44;;;;;;;0.82;0.57;;;19.40;74.40;;;;;;5039762;28;20095;-69
2022/10/31 08:08:19;;;;;;;0.65;0.20;;;19.40;76.60;;;;;;5039646;28;20021;-70
2022/10/31 08:10:54;;;;;;;0.13;0.10;;;19.50;79.60;;;;;;5039615;28;20028;-69
2022/10/31 08:17:08;;;;;;;0.95;0.15;;;19.60;78.50;;;;;;5039766;28;20037;-70
2022/10/31 08:19:43;;;;;;;0.10;0.10;;;19.60;79.40;;;;;;5039455;28;20337;-70
2022/10/31 08:22:18;;;;;;;0.85;0.43;;;19.70;80.20;;;;;;5039409;28;20298;-70
2022/10/31 08:24:43;;;;;;;0.43;0.28;;;19.70;79.40;;;;;;5039393;28;20040;-70
2022/10/31 08:27:27;;;;;;;0.20;0.10;;;19.90;75.00;;;;;;5022019;28;20009;-70
2022/10/31 08:30:02;;;;;;;0.38;0.38;;;20.00;76.50;;;;;;5039247;28;20021;-70
2022/10/31 08:35:58;;;;;;;0.55;0.30;;;20.40;79.60;;;;;;5033840;28;20032;-70
2022/10/31 08:38:39;;;;;;;1.08;0.93;;;20.60;76.00;;;;;;5039029;28;20028;-70
2022/10/31 08:41:14;;;;;;;0.20;0.20;;;20.70;76.80;;;;;;5021452;28;20397;-70
2022/10/31 08:47:17;;;;;;;0.30;0.30;;;20.70;77.30;;;;;;5039251;28;20024;-70
2022/10/31 08:49:51;;;;;;;0.52;0.40;;;20.80;76.00;;;;;;5038837;28;20092;-70
2022/10/31 08:55:39;;;;;;;0.93;0.43;;;21.30;76.30;;;;;;5038830;28;20085;-70
2022/10/31 08:58:30;;;;;;;0.22;0.20;;;21.80;76.90;;;;;;5044144;28;20053;-70
2022/10/31 09:01:05;;;;;;;0.43;0.20;;;22.30;73.10;;;;;;5058562;28;20035;-70
2022/10/31 09:03:31;;;;;;;0.38;0.20;;;22.90;70.70;;;;;;5058423;28;20020;-70
2022/10/31 09:06:12;;;;;;;0.35;0.10;;;23.40;71.20;;;;;;5058481;28;20027;-70
2022/10/31 09:08:47;;;;;;;0.50;0.50;;;24.00;71.00;;;;;;5058391;28;20068;-70
2022/10/31 09:11:22;;;;;;;1.00;0.90;;;24.30;67.20;;;;;;5058409;28;20089;-70
2022/10/31 09:17:26;;;;;;;0.35;0.17;;;25.10;67.00;;;;;;5058596;28;20032;-70
2022/10/31 09:20:01;;;;;;;1.50;0.40;;;25.70;61.90;;;;;;5040505;28;20025;-70
2022/10/31 09:25:59;;;;;;;1.55;0.68;;;26.70;64.20;;;;;;5058763;28;20388;-70
2022/10/31 09:28:35;;;;;;;0.35;0.20;;;27.30;64.70;;;;;;5057974;28;20036;-70
2022/10/31 09:31:09;;;;;;;0.63;0.52;;;27.40;65.00;;;;;;5058421;28;20099;-70
2022/10/31 09:37:13;;;;;;;0.75;0.68;;;27.60;65.80;;;;;;5058230;28;20023;-70
2022/10/31 09:39:47;;;;;;;1.02;0.82;;;27.40;65.30;;;;;;5040181;28;20025;-70
2022/10/31 09:42:32;;;;;;;;;;;27.30;65.20;;;;;;5058145;28;20025;-70
2022/10/31 09:45:25;;;;;;;0.28;0.25;;;27.30;65.30;;;;;;5057680;28;19908;-69
2022/10/31 09:48:25;;;;;;;1.10;0.50;;;27.30;65.90;;;;;;5057655;28;20021;-70
2022/10/31 09:51:32;;;;;;;0.63;0.40;;;27.60;65.80;;;;;;5039898;28;20071;-71
2022/10/31 09:57:33;;;;;;;0.55;0.55;;;28.10;64.50;;;;;;5057856;28;20358;-70
2022/10/31 10:00:58;;;;;;;0.40;0.30;;;28.40;66.30;;;;;;5046362;28;20055;-70
2022/10/31 10:07:56;;;;;;;1.63;0.70;;;28.90;65.40;;;;;;5037687;28;20031;-70
2022/10/31 10:11:21;;;;;;;0.60;0.20;;;29.00;64.10;;;;;;5037274;28;20101;-70
2022/10/31 10:18:18;;;;;;;0.60;0.57;;;28.90;65.60;;;;;;5037531;28;20076;-71
2022/10/31 10:21:44;;;;;;;0.60;0.45;;;28.50;65.00;;;;;;5037168;28;20040;-70
2022/10/31 10:28:50;;;;;;;0.70;0.50;;;28.50;67.30;;;;;;5037024;28;20033;-70
2022/10/31 10:31:42;;;;;;;0.70;0.30;;;28.60;66.30;;;;;;5036950;28;20025;-69
2022/10/31 10:34:59;;;;;;;1.13;0.60;;;28.40;65.20;;;;;;5037048;28;20033;-70
2022/10/31 10:37:39;;;;;;;1.15;0.50;;;28.30;68.10;;;;;;4959789;28;20039;-70
2022/10/31 10:40:27;;;;;;;1.10;0.40;;;28.40;68.80;;;;;;4976354;28;20029;-70
2022/10/31 10:49:18;;;;;;;1.27;0.70;;;27.60;66.40;;;;;;4976161;28;20122;-70
2022/10/31 10:55:39;;;;;;;0.47;0.30;;;27.60;69.00;;;;;;4976141;28;20327;-70
2022/10/31 10:58:17;;;;;;;0.68;0.35;;;27.60;68.20;;;;;;4976012;28;20029;-70
2022/10/31 11:00:54;;;;;;;0.95;0.40;;;27.60;66.50;;;;;;4991451;28;20415;-71
2022/10/31 11:07:20;;;;;;;2.40;1.15;;;27.30;65.60;;;;;;5008500;28;20478;-71
2022/10/31 11:10:15;;;;;;;3.22;0.85;;;27.30;66.80;;;;;;4976036;28;20034;-70
2022/10/31 11:13:19;;;;;;;;;;;27.40;66.00;;;;;;4976012;28;20015;-70
2022/10/31 11:16:43;;;;;;;0.60;0.20;;;27.40;65.30;;;;;;4963560;28;19997;-70
2022/10/31 11:19:26;;;;;;;0.55;0.43;;;27.30;67.20;;;;;;4937228;29;20032;-70
2022/10/31 11:26:34;;;;;;;0.90;0.60;;;27.20;67.10;;;;;;4901821;29;20454;-70
2022/10/31 11:29:38;;;;;;;0.57;0.20;;;27.20;68.20;;;;;;4937149;29;20031;-70
2022/10/31 11:35:26;;;;;;;1.13;0.60;;;27.00;65.80;;;;;;4937537;29;20038;-70
2022/10/31 11:38:17;;;;;;;0.98;0.80;;;27.00;67.30;;;;;;4937127;29;20044;-70
2022/10/31 11:40:59;;;;;;;0.20;0.20;;;27.00;67.10;;;;;;4950859;28;20031;-70
2022/10/31 11:46:59;;;;;;;0.60;0.52;;;26.90;65.30;;;;;;4975820;28;20063;-70
2022/10/31 11:50:14;;;;;;;0.80;0.35;;;26.90;67.20;;;;;;4975489;28;20023;-71
2022/10/31 11:52:51;;;;;;;9.70;1.17;;;26.70;69.20;;;;;;4975252;28;20195;-70
2022/10/31 11:55:34;;;;;;;1.17;0.60;;;26.60;69.30;;;;;;4975489;28;20427;-70
2022/10/31 11:58:00;;;;;;;0.88;0.60;;;26.40;67.10;;;;;;4975376;28;20462;-71
2022/10/31 12:01:25;;;;;;;0.55;0.32;;;26.20;65.90;;;;;;4971195;28;20138;-70
2022/10/31 12:08:23;;;;;;;0.70;0.45;;;25.80;68.40;;;;;;5036592;28;20124;-70
2022/10/31 12:11:49;;;;;;;0.43;0.38;;;25.70;70.70;;;;;;5039656;28;20068;-70
2022/10/31 12:14:49;;;;;;;2.55;1.40;;;25.40;70.20;;;;;;5039538;28;20055;-70
2022/10/31 12:17:48;;;;;;;1.38;0.63;;;25.40;71.80;;;;;;5039395;28;20309;-70
2022/10/31 12:20:56;;;;;;;0.90;0.57;;;25.20;69.90;;;;;;5039428;28;20030;-70
2022/10/31 12:27:23;;;;;;;0.93;0.55;;;25.00;70.30;;;;;;5039623;28;20313;-70
2022/10/31 12:30:01;;;;;;;0.55;0.43;;;24.80;69.90;;;;;;5039228;28;20304;-71
2022/10/31 12:36:25;;;;;;;7.43;1.77;;;24.60;72.10;;;;;;5039488;28;20048;-70
2022/10/31 12:39:24;;;;;;;0.65;0.28;;;24.40;70.50;;;;;;5038910;28;20021;-70
2022/10/31 12:45:57;;;;;;;0.75;0.50;;;24.10;72.30;;;;;;5039333;28;20032;-70
2022/10/31 12:49:13;;;;;;;1.33;0.52;;;24.00;75.90;;;;;;5038918;28;20109;-70
2022/10/31 12:52:00;;;;;;;1.50;1.10;;;23.80;76.80;;;;;;5038878;28;20028;-71
2022/10/31 12:55:00;;;;;;;1.25;0.55;;;23.50;73.80;;;;;;5038879;28;20468;-70
2022/10/31 12:58:15;;;;;;;9.00;1.30;;;23.30;75.00;;;;;;5038795;28;20392;-70
2022/10/31 13:01:22;;;;;;;0.90;0.57;;;23.10;76.70;;;;;;5042970;28;20076;-71
2022/10/31 13:07:07;;;;;;;0.98;0.52;;;22.90;78.30;;;;;;5058564;28;19907;-71
2022/10/31 13:10:03;;;;;;;1.20;0.90;;;22.90;78.80;;;;;;5058377;28;20313;-71
2022/10/31 13:15:57;;;;;;;4.05;1.52;;;22.80;78.00;;;;;;5058603;28;20020;-71
2022/10/31 13:18:41;;;;;;;0.50;0.40;;;22.80;78.60;;;;;;5057862;28;20022;-71
2022/10/31 13:21:58;;;;;;;2.42;0.47;;;22.70;80.30;;;;;;5058209;28;20028;-71
2022/10/31 13:24:30;;;;;;;0.20;0.10;;;22.70;80.70;;;;;;5057996;28;20116;-71
2022/10/31 13:27:37;;;;;;;1.77;1.13;;;22.60;81.90;;;;;;5058130;28;20428;-71
2022/10/31 13:30:20;;;;;;;0.90;0.55;;;22.50;79.70;;;;;;5058113;28;20021;-71
2022/10/31 13:36:14;;;;;;;0.73;0.50;;;22.40;83.70;;;;;;5058293;28;20027;-71
2022/10/31 13:39:35;;;;;;;0.70;0.40;;;22.40;82.40;;;;;;5057911;28;20103;-71
2022/10/31 13:45:25;;;;;;;0.77;0.30;;;22.10;84.20;;;;;;5058150;28;20483;-71
2022/10/31 13:49:02;;;;;;;3.03;0.88;;;22.00;84.30;;;;;;5057716;28;20024;-71
2022/10/31 13:51:37;;;;;;;2.80;0.80;;;21.90;83.40;;;;;;5015968;28;20045;-71
2022/10/31 13:57:43;;;;;;;2.20;1.35;;;21.80;85.50;;;;;;5016209;28;20095;-71
2022/10/31 14:00:34;;;;;;;0.60;0.40;;;21.80;84.00;;;;;;5015996;28;20038;-71
2022/10/31 14:06:42;;;;;;;0.30;0.20;;;21.70;85.50;;;;;;4996594;28;20065;-71
2022/10/31 14:09:27;;;;;;;0.80;0.70;;;21.60;85.00;;;;;;5037397;28;20055;-71
2022/10/31 14:12:07;;;;;;;0.63;0.43;;;21.50;85.90;;;;;;5037004;28;20068;-71
2022/10/31 14:14:55;;;;;;;1.08;0.60;;;21.40;86.40;;;;;;5037320;28;20029;-71
2022/10/31 14:17:38;;;;;;;0.65;0.45;;;21.40;85.50;;;;;;5037168;28;20097;-71
2022/10/31 14:20:42;;;;;;;2.17;0.60;;;21.30;86.40;;;;;;5037250;28;20021;-71
2022/10/31 14:26:38;;;;;;;1.52;0.95;;;21.30;87.40;;;;;;4957249;29;20362;-71
2022/10/31 14:29:32;;;;;;;1.00;0.68;;;21.20;87.20;;;;;;4941064;29;20019;-71
2022/10/31 14:35:30;;;;;;;1.63;0.85;;;21.20;87.30;;;;;;4957427;29;20074;-71
2022/10/31 14:38:33;;;;;;;0.82;0.50;;;21.00;87.50;;;;;;4957100;29;20118;-71
2022/10/31 14:41:17;;;;;;;0.73;0.43;;;21.00;88.30;;;;;;4956998;29;20102;-71
2022/10/31 14:47:22;;;;;;;1.35;0.60;;;20.80;87.80;;;;;;4956820;29;20035;-71
2022/10/31 14:50:44;;;;;;;1.80;0.95;;;20.80;86.90;;;;;;4956794;29;20038;-71
2022/10/31 14:56:41;;;;;;;2.45;1.35;;;20.60;87.80;;;;;;4957092;29;20061;-71
2022/10/31 14:59:22;;;;;;;0.90;0.68;;;20.50;89.00;;;;;;4986684;28;20037;-71
2022/10/31 15:01:57;;;;;;;1.67;1.05;;;20.40;89.90;;;;;;5029252;28;20344;-71
2022/10/31 15:08:00;;;;;;;1.85;0.55;;;20.20;91.20;;;;;;5036680;28;20435;-71
2022/10/31 15:10:37;;;;;;;2.90;0.75;;;20.00;90.80;;;;;;5036324;28;20093;-71
2022/10/31 15:16:34;;;;;;;0.70;0.60;;;19.80;91.60;;;;;;5036694;28;20040;-71
2022/10/31 15:19:16;;;;;;;0.88;0.40;;;19.70;92.40;;;;;;5018830;28;20026;-71
2022/10/31 15:25:21;;;;;;;0.77;0.77;;;19.60;93.50;;;;;;5036601;28;20084;-71
2022/10/31 15:28:14;;;;;;;2.05;1.42;;;19.50;94.60;;;;;;5036369;28;20080;-71
2022/10/31 15:31:10;;;;;;;1.48;0.68;;;19.30;94.60;;;;;;5036261;28;20096;-71
2022/10/31 15:37:36;;;;;;;1.38;0.82;;;18.80;96.20;;;;;;5036547;28;20056;-71
2022/10/31 15:40:20;;;;;;;0.93;0.70;;;18.60;96.70;;;;;;5009616;28;20064;-71
2022/10/31 15:46:09;;;;;;;2.50;1.05;;;18.30;96.60;;;;;;5040352;28;20101;-71
2022/10/31 15:48:47;;;;;;;3.42;0.77;;;18.20;96.90;;;;;;5039986;28;20101;-71
2022/10/31 15:51:32;;;;;;;1.25;0.90;;;18.10;96.90;;;;;;5039988;28;20089;-71
2022/10/31 15:57:30;;;;;;;7.07;2.22;;;17.90;97.50;;;;;;5040099;28;20068;-71
2022/10/31 16:00:05;;;;;;;1.52;1.02;;;17.80;97.40;;;;;;5039699;28;20410;-71
2022/10/31 16:06:34;;;;;;;0.77;0.70;;;17.50;98.00;;;;;;5060052;28;20179;-71
2022/10/31 16:09:48;;;;;;;0.68;0.63;;;17.20;98.00;;;;;;5059511;28;20025;-71
2022/10/31 16:15:36;;;;;;;1.92;1.70;;;17.10;98.00;;;;;;5059892;28;20363;-71
2022/10/31 16:18:11;;;;;;;0.77;0.52;;;17.00;98.00;;;;;;5059517;28;20037;-71
2022/10/31 16:21:22;;;;;;;1.85;1.40;;;16.90;98.00;;;;;;5059396;28;20044;-71
2022/10/31 16:27:33;;;;;;;3.38;1.13;;;16.80;98.00;;;;;;5059505;28;20114;-71
2022/10/31 16:30:38;;;;;;;0.77;0.60;;;16.70;98.00;;;;;;5059213;28;20029;-71
2022/10/31 16:36:32;;;;;;;0.70;0.70;;;16.40;98.00;;;;;;5059274;28;20028;-71
2022/10/31 16:39:08;;;;;;;1.17;0.95;;;16.30;98.00;;;;;;5059031;28;20025;-71
2022/10/31 16:41:45;;;;;;;1.60;1.17;;;16.30;98.00;;;;;;5058808;28;20029;-71
2022/10/31 16:47:42;;;;;;;0.28;0.20;;;16.20;98.00;;;;;;5058666;28;20027;-71
2022/10/31 16:50:27;;;;;;;3.25;2.35;;;16.20;98.00;;;;;;5058840;28;20292;-71
2022/10/31 16:56:17;;;;;;;1.25;1.02;;;16.20;98.00;;;;;;5059048;28;20027;-71
2022/10/31 16:58:56;;;;;;;1.50;1.10;;;16.30;98.00;;;;;;5058559;28;20349;-71
2022/10/31 17:01:31;;;;;;;1.05;0.95;;;16.30;98.00;;;;;;5058448;28;20025;-71
2022/10/31 17:03:56;;;;;;;1.02;0.93;;;16.30;98.00;;;;;;5058343;28;20052;-71
2022/10/31 17:06:37;;;;;;;0.15;0.15;;;16.30;98.00;;;;;;5058547;28;20025;-71
2022/10/31 17:09:12;;;;;;;2.25;1.67;;;16.30;98.00;;;;;;5058476;28;20052;-71
2022/10/31 17:11:52;;;;;;;1.05;0.95;;;16.40;98.00;;;;;;5058366;28;20471;-71
2022/10/31 17:14:19;;;;;;;4.95;1.55;;;16.40;98.00;;;;;;5058423;28;20025;-71
2022/10/31 17:16:59;;;;;;;0.90;0.82;;;16.40;98.00;;;;;;5058443;28;20039;-71
2022/10/31 17:19:34;;;;;;;21.83;0.65;;;16.50;98.00;;;;;;5058286;28;20025;-71
2022/10/31 17:25:35;;;;;;;1.35;0.85;;;16.50;98.00;;;;;;5058479;28;20448;-71
2022/10/31 17:28:13;;;;;;;1.52;0.88;;;16.60;98.00;;;;;;5057953;28;20021;-71
2022/10/31 17:30:48;;;;;;;0.80;0.80;;;16.60;98.00;;;;;;5040341;28;20021;-71
2022/10/31 17:36:36;;;;;;;1.20;0.68;;;16.40;98.00;;;;;;5058198;28;20036;-71
2022/10/31 17:39:51;;;;;;;1.23;0.50;;;16.30;98.00;;;;;;5057983;28;20274;-71
2022/10/31 17:45:41;;;;;;;2.03;0.70;;;16.20;98.00;;;;;;5058164;28;20033;-71
2022/10/31 17:48:53;;;;;;;3.88;1.25;;;16.20;98.00;;;;;;5057524;28;20013;-71
2022/10/31 17:51:28;;;;;;;1.30;0.63;;;16.10;98.00;;;;;;5057495;28;20021;-71
2022/10/31 17:57:32;;;;;;;1.48;1.02;;;16.10;98.00;;;;;;5057825;28;20071;-71
2022/10/31 18:00:10;;;;;;;0.90;0.70;;;16.00;98.00;;;;;;5057452;28;20049;-71
2022/10/31 18:06:44;;;;;;;1.00;0.93;;;16.00;98.00;;;;;;5054970;28;20048;-71
2022/10/31 18:09:56;;;;;;;0.65;0.65;;;16.10;98.00;;;;;;5057436;28;20013;-71
2022/10/31 18:15:44;;;;;;;5.57;1.60;;;16.00;98.00;;;;;;5057509;28;20135;-71
2022/10/31 18:18:19;;;;;;;1.20;0.60;;;16.00;98.00;;;;;;5057103;28;20469;-71
2022/10/31 18:21:05;;;;;;;0.80;0.70;;;15.90;98.00;;;;;;5057204;28;20460;-71
2022/10/31 18:27:08;;;;;;;0.60;0.60;;;15.80;98.00;;;;;;5056978;28;20356;-71